Time;durP1;ratioP1;P1;durP2;ratioP2;P2;SDS_P1;SDS_P2;PMS_P1;PMS_P2;Temp;Humidity;BMP_temperature;BMP_pressure;BME280_temperature;BME280_humidity;BME280_pressure;Samples;Min_cycle;Max_cycle;Signal;HPM_P1;HPM_P2
2022/04/08 00:00:17;;;;;;;;;;;15.70;57.30;;;;;;5100603;28;19908;-66
2022/04/08 00:02:43;;;;;;;;;;;15.70;57.30;;;;;;5100294;28;19907;-67
2022/04/08 00:05:09;;;;;;;;;;;15.70;57.30;;;;;;5100268;28;19930;-67
2022/04/08 00:07:35;;;;;;;;;;;15.70;57.90;;;;;;5100217;28;20212;-66
2022/04/08 00:10:05;;;;;;;;;;;15.70;57.30;;;;;;5100210;28;19946;-66
2022/04/08 00:12:30;;;;;;;;;;;15.70;57.30;;;;;;5100191;28;19983;-66
2022/04/08 00:14:58;;;;;;;;;;;15.60;57.40;;;;;;5100068;28;20243;-66
2022/04/08 00:17:23;;;;;;;;;;;15.70;57.40;;;;;;5100024;28;19957;-67
2022/04/08 00:19:49;;;;;;;;;;;15.70;57.30;;;;;;5100004;28;19908;-66
2022/04/08 00:22:14;;;;;;;;;;;15.70;57.30;;;;;;5100028;28;19907;-67
2022/04/08 00:24:40;;;;;;;;;;;15.70;57.90;;;;;;5100011;28;19912;-67
2022/04/08 00:27:05;;;;;;;;;;;15.70;57.30;;;;;;5100009;28;19953;-67
2022/04/08 00:29:31;;;;;;;;;;;15.70;57.30;;;;;;5103200;28;19908;-68
2022/04/08 00:31:59;;;;;;;;;;;15.70;57.30;;;;;;5104184;28;20119;-67
2022/04/08 00:34:25;;;;;;;;;;;15.70;57.30;;;;;;5104117;28;19939;-67
2022/04/08 00:36:51;;;;;;;;;;;15.70;57.30;;;;;;5104052;28;19910;-67
2022/04/08 00:39:17;;;;;;;;;;;15.70;57.20;;;;;;5102685;28;19908;-66
2022/04/08 00:41:42;;;;;;;;;;;15.70;57.30;;;;;;5104011;28;20112;-66
2022/04/08 00:44:09;;;;;;;;;;;15.60;57.20;;;;;;5103931;28;19914;-66
2022/04/08 00:46:37;;;;;;;;;;;15.70;57.30;;;;;;5103713;28;19977;-67
2022/04/08 00:49:04;;;;;;;;;;;15.70;57.30;;;;;;5103863;28;19939;-67
2022/04/08 00:51:30;;;;;;;;;;;15.70;57.30;;;;;;5103857;28;19908;-66
2022/04/08 00:53:56;;;;;;;;;;;15.60;57.20;;;;;;5103767;28;19939;-67
2022/04/08 00:56:21;;;;;;;;;;;15.60;57.30;;;;;;5103663;28;19918;-67
2022/04/08 00:58:47;;;;;;;;;;;15.70;57.30;;;;;;5103621;28;19904;-67
2022/04/08 01:01:13;;;;;;;;;;;15.60;57.20;;;;;;5103627;28;19908;-67
2022/04/08 01:03:38;;;;;;;;;;;15.60;57.20;;;;;;5103569;28;20221;-66
2022/04/08 01:06:04;;;;;;;;;;;15.60;57.30;;;;;;5103569;28;20041;-66
2022/04/08 01:08:30;;;;;;;;;;;15.60;57.30;;;;;;5103488;28;19915;-67
2022/04/08 01:10:56;;;;;;;;;;;15.60;57.30;;;;;;5103490;28;19911;-67
2022/04/08 01:13:22;;;;;;;;;;;15.60;57.30;;;;;;5103468;28;19908;-67
2022/04/08 01:15:47;;;;;;;;;;;15.60;57.30;;;;;;5103268;28;20005;-66
2022/04/08 01:18:13;;;;;;;;;;;15.60;57.30;;;;;;5103367;28;19915;-67
2022/04/08 01:20:39;;;;;;;;;;;15.60;57.20;;;;;;5103273;28;19908;-67
2022/04/08 01:23:05;;;;;;;;;;;15.60;57.20;;;;;;5103261;28;19908;-66
2022/04/08 01:25:30;;;;;;;;;;;15.60;57.30;;;;;;5103233;28;19908;-67
2022/04/08 01:27:56;;;;;;;;;;;15.60;57.20;;;;;;5103167;28;19978;-66
2022/04/08 01:30:21;;;;;;;;;;;15.60;57.20;;;;;;5103112;28;20020;-67
2022/04/08 01:32:47;;;;;;;;;;;15.60;57.20;;;;;;5103057;28;20196;-67
2022/04/08 01:35:13;;;;;;;;;;;15.60;57.30;;;;;;5103017;28;19908;-67
2022/04/08 01:37:38;;;;;;;;;;;15.60;57.20;;;;;;5103414;28;19953;-66
2022/04/08 01:40:05;;;;;;;;;;;15.60;57.30;;;;;;5102477;28;19911;-67
2022/04/08 01:42:30;;;;;;;;;;;15.60;57.30;;;;;;5102872;28;20182;-66
2022/04/08 01:44:56;;;;;;;;;;;15.60;57.30;;;;;;5102859;28;19908;-67
2022/04/08 01:47:22;;;;;;;;;;;15.60;57.20;;;;;;5102592;28;19965;-67
2022/04/08 01:49:47;;;;;;;;;;;15.60;57.20;;;;;;5102724;28;19979;-67
2022/04/08 01:52:13;;;;;;;;;;;15.60;57.20;;;;;;5102653;28;19950;-66
2022/04/08 01:54:39;;;;;;;;;;;15.60;57.20;;;;;;5102716;28;19994;-67
2022/04/08 01:57:04;;;;;;;;;;;15.60;57.20;;;;;;5102504;28;19912;-67
2022/04/08 01:59:30;;;;;;;;;;;15.60;57.20;;;;;;5102751;28;19907;-67
2022/04/08 02:01:59;;;;;;;;;;;15.60;57.20;;;;;;5102499;28;19900;-67
2022/04/08 02:04:25;;;;;;;;;;;15.60;57.20;;;;;;5102447;28;20150;-66
2022/04/08 02:06:51;;;;;;;;;;;15.60;57.30;;;;;;5102370;28;19978;-66
2022/04/08 02:09:16;;;;;;;;;;;15.60;57.30;;;;;;5102412;28;19908;-67
2022/04/08 02:11:43;;;;;;;;;;;15.60;57.20;;;;;;5102257;28;19899;-67
2022/04/08 02:14:08;;;;;;;;;;;15.60;57.20;;;;;;5102218;28;19912;-66
2022/04/08 02:16:34;;;;;;;;;;;15.60;57.20;;;;;;5102132;28;19919;-67
2022/04/08 02:18:59;;;;;;;;;;;15.60;57.20;;;;;;5102181;28;19984;-66
2022/04/08 02:21:25;;;;;;;;;;;15.60;57.20;;;;;;5102119;28;19915;-66
2022/04/08 02:23:51;;;;;;;;;;;15.60;57.20;;;;;;5102072;28;19900;-67
2022/04/08 02:26:17;;;;;;;;;;;15.60;57.30;;;;;;5102062;28;19931;-67
2022/04/08 02:28:46;;;;;;;;;;;15.50;57.20;;;;;;5100643;28;20199;-67
2022/04/08 02:31:12;;;;;;;;;;;15.60;57.20;;;;;;5101985;28;19911;-67
2022/04/08 02:33:38;;;;;;;;;;;15.60;57.20;;;;;;5100568;28;19915;-66
2022/04/08 02:36:04;;;;;;;;;;;15.60;57.20;;;;;;5101722;28;19973;-66
2022/04/08 02:38:29;;;;;;;;;;;15.60;57.20;;;;;;5101802;28;20208;-66
2022/04/08 02:40:55;;;;;;;;;;;15.60;57.20;;;;;;5101696;28;19915;-67
2022/04/08 02:43:20;;;;;;;;;;;15.60;57.20;;;;;;5101741;28;20077;-67
2022/04/08 02:45:46;;;;;;;;;;;15.60;57.20;;;;;;5101641;28;19947;-67
2022/04/08 02:48:14;;;;;;;;;;;15.60;57.20;;;;;;5101672;28;19930;-66
2022/04/08 02:50:40;;;;;;;;;;;15.60;57.20;;;;;;5100800;28;19908;-67
2022/04/08 02:53:06;;;;;;;;;;;15.60;57.10;;;;;;5101422;28;19904;-67
2022/04/08 02:55:31;;;;;;;;;;;15.60;57.20;;;;;;5101430;28;20017;-67
2022/04/08 02:57:57;;;;;;;;;;;15.50;57.20;;;;;;5101402;28;19989;-67
2022/04/08 03:00:22;;;;;;;;;;;15.50;57.20;;;;;;5101391;28;19991;-67
2022/04/08 03:02:48;;;;;;;;;;;15.50;57.20;;;;;;5101309;28;20179;-66
2022/04/08 03:05:14;;;;;;;;;;;15.50;57.20;;;;;;5101277;28;19915;-67
2022/04/08 03:07:40;;;;;;;;;;;15.50;57.20;;;;;;5101182;28;19908;-67
2022/04/08 03:10:07;;;;;;;;;;;15.50;57.20;;;;;;5101441;28;19935;-66
2022/04/08 03:12:32;;;;;;;;;;;15.50;57.20;;;;;;5101084;28;19907;-67
2022/04/08 03:14:59;;;;;;;;;;;15.50;57.20;;;;;;5101060;28;19908;-66
2022/04/08 03:17:24;;;;;;;;;;;15.50;57.20;;;;;;5100916;28;19954;-67
2022/04/08 03:19:50;;;;;;;;;;;15.50;57.20;;;;;;5101006;28;19908;-67
2022/04/08 03:22:19;;;;;;;;;;;15.50;57.20;;;;;;5100907;28;19907;-66
2022/04/08 03:24:45;;;;;;;;;;;15.50;57.10;;;;;;5100885;28;19978;-67
2022/04/08 03:27:11;;;;;;;;;;;15.60;57.20;;;;;;5100888;28;19908;-66
2022/04/08 03:29:36;;;;;;;;;;;15.50;57.10;;;;;;5100823;28;19908;-68
2022/04/08 03:32:02;;;;;;;;;;;15.50;57.20;;;;;;5100810;28;19953;-67
2022/04/08 03:34:28;;;;;;;;;;;15.50;57.10;;;;;;5100696;28;19923;-67
2022/04/08 03:36:54;;;;;;;;;;;15.50;57.20;;;;;;5100582;28;20006;-67
2022/04/08 03:39:20;;;;;;;;;;;15.50;57.20;;;;;;5100566;28;19908;-67
2022/04/08 03:41:45;;;;;;;;;;;15.50;57.20;;;;;;5100133;28;19907;-67
2022/04/08 03:44:11;;;;;;;;;;;15.50;57.10;;;;;;5100548;28;19919;-67
2022/04/08 03:46:36;;;;;;;;;;;15.50;57.10;;;;;;5100341;28;19916;-67
2022/04/08 03:49:02;;;;;;;;;;;15.60;57.20;;;;;;5100582;28;19904;-67
2022/04/08 03:51:28;;;;;;;;;;;15.50;57.10;;;;;;5100465;28;19914;-67
2022/04/08 03:53:54;;;;;;;;;;;15.50;57.10;;;;;;5100352;28;20346;-66
2022/04/08 03:56:20;;;;;;;;;;;15.50;57.20;;;;;;5100365;28;19915;-67
2022/04/08 03:58:45;;;;;;;;;;;15.50;57.20;;;;;;5100285;28;19906;-67
2022/04/08 04:01:12;;;;;;;;;;;15.50;57.20;;;;;;5100284;28;19978;-67
2022/04/08 04:03:38;;;;;;;;;;;15.50;57.20;;;;;;5100219;28;19900;-66
2022/04/08 04:06:03;;;;;;;;;;;15.50;57.20;;;;;;5100238;28;19948;-67
2022/04/08 04:08:29;;;;;;;;;;;15.50;57.20;;;;;;5100207;28;19939;-66
2022/04/08 04:10:55;;;;;;;;;;;15.50;57.20;;;;;;5100206;28;20385;-67
2022/04/08 04:13:20;;;;;;;;;;;15.50;57.20;;;;;;5100159;28;19915;-67
2022/04/08 04:15:46;;;;;;;;;;;15.50;57.20;;;;;;5100312;28;19908;-66
2022/04/08 04:18:12;;;;;;;;;;;15.50;57.20;;;;;;5100063;28;19906;-67
2022/04/08 04:20:37;;;;;;;;;;;15.50;57.20;;;;;;5100012;28;20141;-66
2022/04/08 04:23:03;;;;;;;;;;;15.50;57.20;;;;;;5100031;28;19977;-67
2022/04/08 04:25:28;;;;;;;;;;;15.50;57.20;;;;;;5100281;28;20003;-67
2022/04/08 04:27:55;;;;;;;;;;;15.50;57.20;;;;;;5099995;28;19973;-66
2022/04/08 04:30:20;;;;;;;;;;;15.50;57.20;;;;;;5099871;28;19908;-67
2022/04/08 04:32:46;;;;;;;;;;;15.50;57.20;;;;;;5099987;28;19940;-66
2022/04/08 04:35:11;;;;;;;;;;;15.50;57.20;;;;;;5099895;28;19908;-67
2022/04/08 04:37:37;;;;;;;;;;;15.50;57.10;;;;;;5099808;28;19911;-67
2022/04/08 04:40:03;;;;;;;;;;;15.50;57.10;;;;;;5099838;28;19907;-67
2022/04/08 04:42:29;;;;;;;;;;;15.50;57.10;;;;;;5099790;28;20235;-67
2022/04/08 04:44:55;;;;;;;;;;;15.50;57.10;;;;;;5099831;28;19912;-67
2022/04/08 04:47:21;;;;;;;;;;;15.50;57.10;;;;;;5099713;28;19912;-66
2022/04/08 04:49:46;;;;;;;;;;;15.50;57.10;;;;;;5099790;28;19950;-66
2022/04/08 04:52:12;;;;;;;;;;;15.50;57.00;;;;;;5099799;28;19900;-66
2022/04/08 04:54:38;;;;;;;;;;;15.50;57.10;;;;;;5099724;28;19908;-66
2022/04/08 04:57:04;;;;;;;;;;;15.50;57.10;;;;;;5099710;28;19912;-67
2022/04/08 04:59:29;;;;;;;;;;;15.50;57.10;;;;;;5099712;28;19908;-67
2022/04/08 05:01:55;;;;;;;;;;;15.50;57.10;;;;;;5099671;28;20304;-66
2022/04/08 05:04:20;;;;;;;;;;;15.40;57.10;;;;;;5099653;28;19907;-66
2022/04/08 05:06:46;;;;;;;;;;;15.50;57.10;;;;;;5099547;28;19904;-66
2022/04/08 05:09:11;;;;;;;;;;;15.50;57.20;;;;;;5099582;28;19939;-67
2022/04/08 05:11:37;;;;;;;;;;;15.40;57.10;;;;;;5099545;28;19908;-67
2022/04/08 05:14:02;;;;;;;;;;;15.50;57.20;;;;;;5100048;28;19908;-67
2022/04/08 05:16:29;;;;;;;;;;;15.50;57.10;;;;;;5103360;28;19988;-67
2022/04/08 05:18:54;;;;;;;;;;;15.50;57.10;;;;;;5103544;28;19939;-67
2022/04/08 05:21:20;;;;;;;;;;;15.50;57.10;;;;;;5103365;28;20300;-66
2022/04/08 05:23:46;;;;;;;;;;;15.50;57.00;;;;;;5103217;28;19900;-66
2022/04/08 05:26:11;;;;;;;;;;;15.40;57.10;;;;;;5103190;28;19908;-67
2022/04/08 05:28:37;;;;;;;;;;;15.50;57.00;;;;;;5103183;28;19915;-69
2022/04/08 05:31:02;;;;;;;;;;;15.50;57.00;;;;;;5103102;28;20211;-66
2022/04/08 05:33:28;;;;;;;;;;;15.50;57.00;;;;;;5103259;28;19907;-66
2022/04/08 05:35:53;;;;;;;;;;;15.40;57.00;;;;;;5102987;28;19919;-66
2022/04/08 05:38:19;;;;;;;;;;;15.50;57.00;;;;;;5102968;28;19946;-66
2022/04/08 05:40:45;;;;;;;;;;;15.40;57.00;;;;;;5102884;28;19908;-67
2022/04/08 05:43:10;;;;;;;;;;;15.50;57.00;;;;;;5102880;28;19967;-67
2022/04/08 05:45:36;;;;;;;;;;;15.50;57.00;;;;;;5102688;28;19904;-68
2022/04/08 05:48:02;;;;;;;;;;;15.50;57.00;;;;;;5102584;28;19920;-67
2022/04/08 05:50:27;;;;;;;;;;;15.50;56.90;;;;;;5102761;28;19900;-66
2022/04/08 05:52:53;;;;;;;;;;;15.50;57.00;;;;;;5102728;28;20111;-66
2022/04/08 05:55:19;;;;;;;;;;;15.50;57.00;;;;;;5102702;28;19908;-67
2022/04/08 05:57:45;;;;;;;;;;;15.50;57.00;;;;;;5102533;28;19952;-66
2022/04/08 06:00:12;;;;;;;;;;;15.50;57.00;;;;;;5102805;28;19993;-66
2022/04/08 06:02:37;;;;;;;;;;;15.50;56.90;;;;;;5102672;28;19900;-67
2022/04/08 06:05:03;;;;;;;;;;;15.50;57.00;;;;;;5102492;28;20219;-66
2022/04/08 06:07:29;;;;;;;;;;;15.50;56.90;;;;;;5102410;28;19915;-67
2022/04/08 06:09:56;;;;;;;;;;;15.50;56.90;;;;;;5102354;28;19911;-67
2022/04/08 06:12:22;;;;;;;;;;;15.50;56.90;;;;;;5102306;28;19930;-66
2022/04/08 06:14:47;;;;;;;;;;;15.50;56.80;;;;;;5102190;28;19904;-67
2022/04/08 06:17:13;;;;;;;;;;;15.50;56.80;;;;;;5102411;28;19992;-66
2022/04/08 06:19:38;;;;;;;;;;;15.50;57.40;;;;;;5102444;28;20188;-67
2022/04/08 06:22:04;;;;;;;;;;;15.50;56.80;;;;;;5102095;28;20104;-66
2022/04/08 06:24:30;;;;;;;;;;;15.50;56.70;;;;;;5102113;28;20218;-66
2022/04/08 06:26:55;;;;;;;;;;;15.50;56.70;;;;;;5100967;28;20264;-66
2022/04/08 06:29:21;;;;;;;;;;;15.50;56.70;;;;;;5102180;28;19908;-66
2022/04/08 06:31:46;;;;;;;;;;;15.50;56.70;;;;;;5101891;28;19915;-67
2022/04/08 06:34:12;;;;;;;;;;;15.50;56.70;;;;;;5101730;28;19985;-68
2022/04/08 06:36:37;;;;;;;;;;;15.50;56.70;;;;;;5101878;28;19904;-67
2022/04/08 06:39:04;;;;;;;;;;;15.50;56.80;;;;;;5101778;28;19912;-67
2022/04/08 06:41:29;;;;;;;;;;;15.50;56.70;;;;;;5101684;28;19979;-67
2022/04/08 06:43:55;;;;;;;;;;;15.50;56.70;;;;;;5101724;28;19915;-67
2022/04/08 06:46:21;;;;;;;;;;;15.60;56.80;;;;;;5101557;28;19899;-67
2022/04/08 06:48:47;;;;;;;;;;;15.50;56.70;;;;;;5101723;28;20015;-66
2022/04/08 06:51:12;;;;;;;;;;;15.50;56.60;;;;;;5101523;28;20192;-66
2022/04/08 06:53:38;;;;;;;;;;;15.50;56.60;;;;;;5101540;28;19908;-66
2022/04/08 06:56:04;;;;;;;;;;;15.60;56.70;;;;;;5101652;28;19919;-66
2022/04/08 06:58:30;;;;;;;;;;;15.60;56.70;;;;;;5101636;28;19908;-67
2022/04/08 07:00:56;;;;;;;;;;;15.60;56.70;;;;;;5101601;28;20069;-67
2022/04/08 07:03:22;;;;;;;;;;;15.50;56.70;;;;;;5101378;28;19912;-67
2022/04/08 07:05:47;;;;;;;;;;;15.50;56.70;;;;;;5101292;28;19906;-67
2022/04/08 07:08:13;;;;;;;;;;;15.50;56.70;;;;;;5101201;28;19915;-66
2022/04/08 07:10:39;;;;;;;;;;;15.60;56.80;;;;;;5101235;28;20313;-66
2022/04/08 07:13:05;;;;;;;;;;;15.50;56.80;;;;;;5101334;28;20453;-67
2022/04/08 07:15:31;;;;;;;;;;;15.50;56.70;;;;;;5101120;28;19900;-67
2022/04/08 07:17:57;;;;;;;;;;;15.50;56.70;;;;;;5101046;28;19969;-67
2022/04/08 07:20:22;;;;;;;;;;;15.50;56.80;;;;;;5100971;28;19900;-67
2022/04/08 07:22:49;;;;;;;;;;;15.50;56.80;;;;;;5100980;28;19907;-66
2022/04/08 07:25:14;;;;;;;;;;;15.50;56.80;;;;;;5100940;28;19908;-66
2022/04/08 07:27:47;;;;;;;;;;;15.50;56.80;;;;;;5100898;28;20053;-67
2022/04/08 07:30:14;;;;;;;;;;;15.50;56.80;;;;;;5099599;28;19946;-67
2022/04/08 07:32:39;;;;;;;;;;;15.50;56.80;;;;;;5100858;28;19955;-67
2022/04/08 07:35:05;;;;;;;;;;;15.50;56.80;;;;;;5100762;28;19915;-67
2022/04/08 07:37:31;;;;;;;;;;;15.50;56.80;;;;;;5100294;28;19903;-67
2022/04/08 07:39:57;;;;;;;;;;;15.50;56.80;;;;;;5100716;28;19914;-67
2022/04/08 07:42:26;;;;;;;;;;;15.50;57.40;;;;;;5100687;28;19900;-66
2022/04/08 07:44:52;;;;;;;;;;;15.50;56.80;;;;;;5100629;28;19957;-67
2022/04/08 07:47:19;;;;;;;;;;;15.50;56.80;;;;;;5100407;28;19912;-67
2022/04/08 07:49:45;;;;;;;;;;;15.50;56.80;;;;;;5099248;28;19973;-67
2022/04/08 07:52:11;;;;;;;;;;;15.50;56.80;;;;;;5100529;28;19900;-66
2022/04/08 07:54:37;;;;;;;;;;;15.60;56.80;;;;;;5100503;28;20095;-66
2022/04/08 07:57:02;;;;;;;;;;;15.60;56.80;;;;;;5100380;28;20188;-67
2022/04/08 07:59:28;;;;;;;;;;;15.50;56.70;;;;;;5100402;28;19907;-66
2022/04/08 08:01:53;;;;;;;;;;;15.60;56.80;;;;;;5100385;28;20124;-67
2022/04/08 08:04:19;;;;;;;;;;;15.60;56.80;;;;;;5100277;28;19942;-67
2022/04/08 08:06:44;;;;;;;;;;;15.60;56.70;;;;;;5100218;28;19908;-67
2022/04/08 08:09:10;;;;;;;;;;;15.60;56.70;;;;;;5100223;28;19900;-67
2022/04/08 08:11:35;;;;;;;;;;;15.60;56.70;;;;;;5100187;28;19901;-67
2022/04/08 08:14:01;;;;;;;;;;;15.60;56.70;;;;;;5100146;28;19908;-67
2022/04/08 08:16:26;;;;;;;;;;;15.60;56.60;;;;;;5100094;28;19993;-66
2022/04/08 08:18:56;;;;;;;;;;;15.60;56.60;;;;;;5100120;28;20092;-67
2022/04/08 08:21:25;;;;;;;;;;;15.60;56.60;;;;;;5100088;28;19915;-67
2022/04/08 08:23:51;;;;;;;;;;;15.60;56.60;;;;;;5100097;28;19904;-67
2022/04/08 08:26:16;;;;;;;;;;;15.60;56.60;;;;;;5100103;28;20263;-66
2022/04/08 08:28:42;;;;;;;;;;;15.60;56.60;;;;;;5100035;28;20122;-67
2022/04/08 08:31:07;;;;;;;;;;;15.60;56.60;;;;;;5100052;28;20051;-67
2022/04/08 08:33:33;;;;;;;;;;;15.60;56.70;;;;;;5100002;28;20200;-66
2022/04/08 08:35:58;;;;;;;;;;;15.60;56.70;;;;;;5099911;28;19912;-67
2022/04/08 08:38:24;;;;;;;;;;;15.60;56.60;;;;;;5099986;28;19908;-67
2022/04/08 08:40:50;;;;;;;;;;;15.60;56.60;;;;;;5099911;28;19989;-67
2022/04/08 08:43:17;;;;;;;;;;;15.60;56.70;;;;;;5099915;28;19900;-66
2022/04/08 08:45:44;;;;;;;;;;;15.60;56.70;;;;;;5099897;28;19904;-66
2022/04/08 08:48:10;;;;;;;;;;;15.60;56.70;;;;;;5099761;28;19920;-67
2022/04/08 08:50:37;;;;;;;;;;;15.60;56.80;;;;;;5102985;28;20099;-66
2022/04/08 08:53:03;;;;;;;;;;;15.60;56.70;;;;;;5103908;28;19899;-66
2022/04/08 08:55:28;;;;;;;;;;;15.60;56.70;;;;;;5103828;28;19935;-67
2022/04/08 08:57:54;;;;;;;;;;;15.60;56.70;;;;;;5103762;28;19976;-66
2022/04/08 09:00:20;;;;;;;;;;;15.60;56.80;;;;;;5103807;28;20188;-66
2022/04/08 09:02:48;;;;;;;;;;;15.60;56.70;;;;;;5103708;28;19938;-67
2022/04/08 09:05:23;;;;;;;;;;;15.60;57.40;;;;;;5103690;28;19908;-66
2022/04/08 09:08:00;;;;;;;;;;;15.60;56.70;;;;;;5103642;28;20376;-67
2022/04/08 09:10:31;;;;;;;;;;;15.60;56.70;;;;;;5103901;28;19978;-67
2022/04/08 09:12:57;;;;;;;;;;;15.70;56.70;;;;;;5103515;28;19908;-67
2022/04/08 09:15:23;;;;;;;;;;;15.60;56.60;;;;;;5103554;28;20122;-66
2022/04/08 09:17:49;;;;;;;;;;;15.70;56.70;;;;;;5103367;28;19973;-67
2022/04/08 09:20:15;;;;;;;;;;;15.70;56.70;;;;;;5103393;28;19978;-66
2022/04/08 09:22:40;;;;;;;;;;;15.70;56.70;;;;;;5103195;28;19900;-67
2022/04/08 09:25:10;;;;;;;;;;;15.70;56.70;;;;;;5103283;28;19964;-66
2022/04/08 09:27:40;;;;;;;;;;;15.70;56.60;;;;;;5103315;28;19937;-66
2022/04/08 09:30:07;;;;;;;;;;;15.70;56.60;;;;;;5103217;28;19915;-66
2022/04/08 09:32:33;;;;;;;;;;;15.70;56.60;;;;;;5103390;28;19944;-66
2022/04/08 09:34:59;;;;;;;;;;;15.70;56.60;;;;;;5103107;28;20360;-67
2022/04/08 09:37:24;;;;;;;;;;;15.70;56.60;;;;;;5103006;28;19918;-67
2022/04/08 09:39:56;;;;;;;;;;;15.70;56.60;;;;;;5103009;28;19900;-66
2022/04/08 09:42:39;;;;;;;;;;;15.70;56.60;;;;;;5102970;28;19915;-67
2022/04/08 09:45:05;;;;;;;;;;;15.70;56.70;;;;;;5102980;28;19950;-66
2022/04/08 09:47:32;;;;;;;;;;;15.70;56.70;;;;;;5102749;28;19912;-67
2022/04/08 09:49:57;;;;;;;;;;;15.70;56.70;;;;;;5102833;28;19935;-67
2022/04/08 09:52:24;;;;;;;;;;;15.70;56.70;;;;;;5102768;28;19911;-66
2022/04/08 09:54:52;;;;;;;;;;;15.70;56.60;;;;;;5102734;28;20192;-66
2022/04/08 09:57:18;;;;;;;;;;;15.70;56.60;;;;;;5102632;28;19938;-67
2022/04/08 09:59:44;;;;;;;;;;;15.70;56.60;;;;;;5102398;28;19908;-67
2022/04/08 10:02:12;;;;;;;;;;;15.70;56.60;;;;;;5102602;28;20199;-67
2022/04/08 10:04:38;;;;;;;;;;;15.70;56.60;;;;;;5102537;28;19900;-66
2022/04/08 10:07:05;;;;;;;;;;;15.70;56.50;;;;;;5102772;28;19969;-67
2022/04/08 10:09:32;;;;;;;;;;;15.80;56.60;;;;;;5102477;28;19900;-66
2022/04/08 10:12:24;;;;;;;;;;;15.80;56.60;;;;;;5102444;28;19906;-67
2022/04/08 10:14:53;;;;;;;;;;;15.80;56.60;;;;;;5099220;28;19908;-66
2022/04/08 10:17:19;;;;;;;;;;;15.80;56.60;;;;;;5102208;28;19911;-67
2022/04/08 10:19:44;;;;;;;;;;;15.80;56.60;;;;;;5102260;28;20283;-67
2022/04/08 10:22:17;;;;;;;;;;;15.80;56.60;;;;;;5102233;28;20202;-66
2022/04/08 10:24:56;;;;;;;;;;;15.80;56.60;;;;;;5102169;28;19900;-68
2022/04/08 10:27:32;;;;;;;;;;;15.80;56.60;;;;;;5102143;28;19908;-67
2022/04/08 10:29:58;;;;;;;;;;;15.80;56.60;;;;;;5102088;28;19900;-67
2022/04/08 10:32:24;;;;;;;;;;;15.80;56.50;;;;;;5102066;28;19908;-66
2022/04/08 10:34:49;;;;;;;;;;;15.80;56.50;;;;;;5102044;28;19908;-67
2022/04/08 10:37:21;;;;;;;;;;;15.80;56.50;;;;;;5101788;28;19908;-67
2022/04/08 10:39:56;;;;;;;;;;;15.90;56.50;;;;;;5102218;28;19965;-66
2022/04/08 10:42:22;;;;;;;;;;;15.90;56.60;;;;;;5101781;28;19907;-67
2022/04/08 10:44:48;;;;;;;;;;;15.90;56.60;;;;;;5101804;28;19900;-67
2022/04/08 10:47:16;;;;;;;;;;;15.90;56.60;;;;;;5101552;28;19965;-66
2022/04/08 10:49:52;;;;;;;;;;;15.90;56.60;;;;;;5101655;28;19915;-67
2022/04/08 10:52:18;;;;;;;;;;;15.90;56.70;;;;;;5101642;28;19931;-67
2022/04/08 10:54:44;;;;;;;;;;;15.80;56.60;;;;;;5101609;28;19915;-67
2022/04/08 10:57:10;;;;;;;;;;;15.90;56.70;;;;;;5101475;28;19912;-67
2022/04/08 10:59:36;;;;;;;;;;;15.90;56.70;;;;;;5101706;28;20092;-67
2022/04/08 11:02:05;;;;;;;;;;;15.90;56.70;;;;;;5101427;28;20220;-66
2022/04/08 11:04:31;;;;;;;;;;;15.90;56.60;;;;;;5101353;28;19937;-66
2022/04/08 11:07:02;;;;;;;;;;;15.90;56.70;;;;;;5101341;28;19908;-67
2022/04/08 11:09:28;;;;;;;;;;;15.90;56.70;;;;;;5101359;28;19907;-67
2022/04/08 11:11:54;;;;;;;;;;;15.90;56.70;;;;;;5100534;28;19908;-66
2022/04/08 11:14:20;;;;;;;;;;;15.90;56.60;;;;;;5101249;28;20115;-67
2022/04/08 11:16:47;;;;;;;;;;;15.90;57.20;;;;;;5101135;28;19941;-67
2022/04/08 11:19:12;;;;;;;;;;;15.90;56.60;;;;;;5101097;28;19938;-66
2022/04/08 11:21:38;;;;;;;;;;;16.00;57.10;;;;;;5101119;28;19903;-67
2022/04/08 11:24:05;;;;;;;;;;;16.00;56.50;;;;;;5101013;28;19915;-67
2022/04/08 11:26:39;;;;;;;;;;;16.00;56.60;;;;;;5101053;28;20451;-67
2022/04/08 11:29:12;;;;;;;;;;;16.00;56.50;;;;;;5101026;28;20223;-67
2022/04/08 11:31:38;;;;;;;;;;;16.00;56.60;;;;;;5100906;28;20222;-67
2022/04/08 11:34:04;;;;;;;;;;;16.00;56.60;;;;;;5100844;28;19972;-67
2022/04/08 11:36:30;;;;;;;;;;;16.00;56.60;;;;;;5100765;28;20116;-67
2022/04/08 11:38:55;;;;;;;;;;;16.00;56.70;;;;;;5100751;28;20191;-66
2022/04/08 11:41:21;;;;;;;;;;;15.90;56.80;;;;;;5100664;28;19908;-67
2022/04/08 11:43:47;;;;;;;;;;;15.90;56.80;;;;;;5100704;28;19942;-66
2022/04/08 11:46:13;;;;;;;;;;;15.90;56.80;;;;;;5100625;28;19900;-67
2022/04/08 11:48:39;;;;;;;;;;;15.90;56.90;;;;;;5100467;28;19920;-66
2022/04/08 11:51:05;;;;;;;;;;;15.90;57.00;;;;;;5100587;28;20140;-67
2022/04/08 11:53:41;;;;;;;;;;;15.90;57.00;;;;;;5100577;28;20188;-66
2022/04/08 11:56:07;;;;;;;;;;;15.90;57.10;;;;;;5100484;28;19951;-67
2022/04/08 11:58:33;;;;;;;;;;;15.80;57.00;;;;;;5100417;28;19907;-66
2022/04/08 12:00:59;;;;;;;;;;;15.80;57.70;;;;;;5100398;28;20112;-67
2022/04/08 12:03:32;;;;;;;;;;;15.80;57.10;;;;;;5100346;28;19908;-67
2022/04/08 12:05:59;;;;;;;;;;;15.80;57.10;;;;;;5100317;28;19900;-66
2022/04/08 12:08:24;;;;;;;;;;;15.80;57.10;;;;;;5100215;28;19999;-67
2022/04/08 12:10:51;;;;;;;;;;;15.80;57.10;;;;;;5100241;28;19900;-67
2022/04/08 12:13:22;;;;;;;;;;;15.80;57.10;;;;;;5100299;28;19908;-67
2022/04/08 12:15:49;;;;;;;;;;;15.80;57.10;;;;;;5100378;28;19937;-67
2022/04/08 12:18:23;;;;;;;;;;;15.80;57.10;;;;;;5100180;28;19908;-68
2022/04/08 12:20:55;;;;;;;;;;;15.80;57.20;;;;;;5100178;28;20207;-66
2022/04/08 12:23:25;;;;;;;;;;;15.80;57.10;;;;;;5100091;28;19900;-67
2022/04/08 12:25:55;;;;;;;;;;;15.80;57.10;;;;;;5100158;28;19907;-67
2022/04/08 12:28:38;;;;;;;;;;;15.80;57.00;;;;;;5098711;28;19935;-66
2022/04/08 12:31:10;;;;;;;;;;;15.90;57.10;;;;;;5100106;28;20263;-66
2022/04/08 12:33:36;;;;;;;;;;;15.80;57.00;;;;;;5099992;28;19900;-67
2022/04/08 12:36:02;;;;;;;;;;;15.90;57.10;;;;;;5099933;28;19915;-67
2022/04/08 12:38:29;;;;;;;;;;;15.90;57.10;;;;;;5099913;28;20099;-66
2022/04/08 12:40:54;;;;;;;;;;;15.80;57.00;;;;;;5099910;28;19908;-67
2022/04/08 12:43:20;;;;;;;;;;;15.80;57.00;;;;;;5099816;28;19945;-67
2022/04/08 12:45:45;;;;;;;;;;;15.80;57.00;;;;;;5099898;28;19900;-67
2022/04/08 12:48:14;;;;;;;;;;;15.80;57.00;;;;;;5099696;28;19927;-67
2022/04/08 12:50:39;;;;;;;;;;;15.90;57.00;;;;;;5099830;28;20115;-67
2022/04/08 12:53:05;;;;;;;;;;;15.90;57.00;;;;;;5099787;28;19975;-67
2022/04/08 12:55:31;;;;;;;;;;;15.90;57.00;;;;;;5099852;28;19900;-67
2022/04/08 12:57:57;;;;;;;;;;;15.90;57.00;;;;;;5099804;28;19911;-68
2022/04/08 13:00:23;;;;;;;;;;;15.90;57.00;;;;;;5099786;28;20012;-67
2022/04/08 13:02:49;;;;;;;;;;;15.80;56.90;;;;;;5099737;28;19907;-67
2022/04/08 13:05:14;;;;;;;;;;;15.90;57.00;;;;;;5099747;28;20413;-67
2022/04/08 13:07:40;;;;;;;;;;;15.80;57.00;;;;;;5099684;28;20254;-67
2022/04/08 13:10:06;;;;;;;;;;;15.90;57.10;;;;;;5099720;28;20150;-67
2022/04/08 13:12:32;;;;;;;;;;;15.80;57.00;;;;;;5099625;28;19949;-66
2022/04/08 13:14:58;;;;;;;;;;;15.90;57.00;;;;;;5099698;28;19900;-66
2022/04/08 13:17:23;;;;;;;;;;;15.90;57.10;;;;;;5099515;28;19912;-67
2022/04/08 13:19:49;;;;;;;;;;;15.80;57.00;;;;;;5099615;28;20211;-67
2022/04/08 13:22:14;;;;;;;;;;;15.90;57.10;;;;;;5099511;28;20224;-68
2022/04/08 13:24:40;;;;;;;;;;;15.80;57.00;;;;;;5099632;28;19988;-68
2022/04/08 13:27:06;;;;;;;;;;;15.80;57.10;;;;;;5098216;28;19941;-67
2022/04/08 13:29:31;;;;;;;;;;;15.80;57.10;;;;;;5099495;28;19908;-67
2022/04/08 13:31:57;;;;;;;;;;;15.80;57.10;;;;;;5099544;28;19940;-67
2022/04/08 13:34:22;;;;;;;;;;;15.80;57.10;;;;;;5099472;28;20425;-67
2022/04/08 13:36:48;;;;;;;;;;;15.80;57.10;;;;;;5102552;28;19912;-67
2022/04/08 13:39:14;;;;;;;;;;;15.80;57.10;;;;;;5103071;28;19915;-67
2022/04/08 13:41:39;;;;;;;;;;;15.80;57.00;;;;;;5103022;28;19939;-66
2022/04/08 13:44:05;;;;;;;;;;;15.80;57.10;;;;;;5103012;28;19908;-67
2022/04/08 13:46:30;;;;;;;;;;;15.80;57.10;;;;;;5102844;28;20501;-66
2022/04/08 13:48:57;;;;;;;;;;;15.80;57.00;;;;;;5102958;28;20085;-66
2022/04/08 13:51:26;;;;;;;;;;;15.80;57.00;;;;;;5102872;28;20148;-67
2022/04/08 13:53:52;;;;;;;;;;;15.80;57.00;;;;;;5102739;28;19915;-67
2022/04/08 13:56:19;;;;;;;;;;;15.80;57.00;;;;;;5102690;28;19904;-67
2022/04/08 13:58:44;;;;;;;;;;;15.90;57.10;;;;;;5102770;28;20264;-67
2022/04/08 14:01:10;;;;;;;;;;;15.80;57.00;;;;;;5102667;28;19930;-68
2022/04/08 14:03:36;;;;;;;;;;;15.80;57.10;;;;;;5102720;28;19900;-67
2022/04/08 14:06:02;;;;;;;;;;;15.80;57.10;;;;;;5102597;28;19915;-67
2022/04/08 14:08:27;;;;;;;;;;;15.80;57.20;;;;;;5102592;28;19903;-67
2022/04/08 14:10:53;;;;;;;;;;;15.80;57.20;;;;;;5102462;28;20215;-66